createdAt,value
2023-05-21T00:01:16.607Z,51.65
2023-05-21T00:05:32.869Z,51.84
2023-05-21T00:09:49.102Z,51.42
2023-05-21T00:14:05.641Z,51.37
2023-05-21T00:18:22.452Z,51.31
2023-05-21T00:22:38.788Z,50.93
2023-05-21T00:26:55.072Z,50.87
2023-05-21T00:31:11.363Z,51.49
2023-05-21T00:35:27.655Z,52.64
2023-05-21T00:39:43.852Z,52.64
2023-05-21T00:44:00.584Z,53.15
2023-05-21T00:48:16.873Z,53.09
2023-05-21T00:52:33.595Z,53.88
2023-05-21T00:56:50.989Z,53.75
2023-05-21T01:01:07.372Z,53.61
2023-05-21T01:05:23.687Z,54.19
2023-05-21T01:09:41.268Z,54.17
2023-05-21T01:13:57.594Z,53.62
2023-05-21T01:18:14.721Z,53.97
2023-05-21T01:22:32.681Z,53.93
2023-05-21T01:26:49.821Z,54.77
2023-05-21T01:31:15.693Z,54.97
2023-05-21T01:35:39.514Z,54.62
2023-05-21T01:40:00.348Z,55.28
2023-05-21T01:44:18.643Z,55.13
2023-05-21T01:48:35.278Z,55.09
2023-05-21T01:52:57.231Z,55.55
2023-05-21T01:57:13.839Z,55.81
2023-05-21T02:01:30.570Z,55.76
2023-05-21T02:05:47.538Z,55.43
2023-05-21T02:10:04.186Z,55.81
2023-05-21T02:14:20.771Z,56.14
2023-05-21T02:18:37.146Z,55.69
2023-05-21T02:22:53.373Z,55.47
2023-05-21T02:27:10.840Z,55.81
2023-05-21T02:31:27.120Z,55.98
2023-05-21T02:35:44.201Z,56.65
2023-05-21T02:40:01.438Z,56.42
2023-05-21T02:44:19.508Z,55.96
2023-05-21T02:48:35.969Z,55.78
2023-05-21T02:52:52.605Z,55.96
2023-05-21T02:57:08.826Z,56.10
2023-05-21T03:01:25.126Z,56.59
2023-05-21T03:05:41.638Z,56.52
2023-05-21T03:09:57.933Z,56.43
2023-05-21T03:14:14.808Z,56.37
2023-05-21T03:18:31.013Z,56.49
2023-05-21T03:22:48.472Z,56.99
2023-05-21T03:27:06.766Z,56.74
2023-05-21T03:31:26.940Z,56.49
2023-05-21T03:35:43.443Z,56.90
2023-05-21T03:39:59.741Z,56.70
2023-05-21T03:44:15.942Z,56.23
2023-05-21T03:48:32.566Z,56.82
2023-05-21T03:52:48.833Z,57.36
2023-05-21T03:57:05.199Z,57.02
2023-05-21T04:01:21.667Z,57.29
2023-05-21T04:05:38.186Z,57.12
2023-05-21T04:09:54.547Z,57.58
2023-05-21T04:14:10.903Z,56.82
2023-05-21T04:18:27.280Z,57.61
2023-05-21T04:22:44.075Z,57.72
2023-05-21T04:27:01.763Z,56.94
2023-05-21T04:31:18.195Z,56.14
2023-05-21T04:35:35.719Z,57.07
2023-05-21T04:39:52.255Z,58.68
2023-05-21T04:44:09.406Z,58.89
2023-05-21T04:48:27.672Z,58.50
2023-05-21T04:52:45.822Z,57.08
2023-05-21T04:57:03.165Z,55.76
2023-05-21T05:01:19.584Z,55.76
2023-05-21T05:05:36.032Z,56.60
2023-05-21T05:09:52.484Z,56.11
2023-05-21T05:14:08.888Z,55.39
2023-05-21T05:18:25.052Z,54.11
2023-05-21T05:22:41.427Z,53.41
2023-05-21T05:26:57.681Z,52.03
2023-05-21T05:31:14.242Z,51.37
2023-05-21T05:39:46.441Z,51.81
2023-05-21T05:44:02.562Z,50.52
2023-05-21T05:48:18.724Z,49.59
2023-05-21T05:52:34.863Z,49.37
2023-05-21T05:56:51.013Z,48.73
2023-05-21T06:01:07.347Z,47.96
2023-05-21T06:05:23.609Z,47.26
2023-05-21T06:09:39.884Z,47.57
2023-05-21T06:13:56.295Z,47.28
2023-05-21T06:18:12.548Z,47.32
2023-05-21T06:22:28.787Z,47.33
2023-05-21T06:26:44.999Z,47.15
2023-05-21T06:31:01.249Z,46.55
2023-05-21T06:35:17.505Z,46.27
2023-05-21T06:39:33.759Z,45.69
2023-05-21T06:43:49.979Z,45.24
2023-05-21T06:48:06.636Z,46.06
2023-05-21T06:52:22.824Z,45.67
2023-05-21T06:56:40.565Z,45.07
2023-05-21T07:00:57.671Z,44.78
2023-05-21T07:05:13.968Z,45.02
2023-05-21T07:09:30.339Z,43.53
2023-05-21T07:13:46.604Z,44.46
2023-05-21T07:18:03.769Z,43.56
2023-05-21T07:22:20.014Z,43.72
2023-05-21T07:26:36.365Z,44.03
2023-05-21T07:30:52.611Z,43.46
2023-05-21T07:35:09.117Z,43.98
2023-05-21T07:39:25.309Z,42.83
2023-05-21T07:43:41.525Z,42.01
2023-05-21T07:47:57.797Z,41.11
2023-05-21T07:52:13.960Z,40.98
2023-05-21T07:56:30.269Z,40.96
2023-05-21T08:00:47.750Z,40.42
2023-05-21T08:05:04.226Z,39.39
2023-05-21T08:09:20.435Z,39.20
2023-05-21T08:13:36.796Z,37.68
2023-05-21T08:17:53.021Z,37.19
2023-05-21T08:22:09.366Z,37.39
2023-05-21T08:26:25.877Z,36.93
2023-05-21T08:30:42.122Z,36.66
2023-05-21T08:34:58.398Z,36.61
2023-05-21T08:39:14.630Z,37.75
2023-05-21T08:43:31.072Z,37.09
2023-05-21T08:47:47.952Z,36.40
2023-05-21T08:52:05.087Z,36.97
2023-05-21T08:56:21.410Z,38.65
2023-05-21T09:00:37.858Z,37.53
2023-05-21T09:05:00.162Z,37.50
2023-05-21T09:09:33.306Z,39.41
2023-05-21T09:13:51.042Z,39.25
2023-05-21T09:18:07.294Z,36.26
2023-05-21T09:22:24.721Z,32.87
2023-05-21T09:26:44.337Z,34.79
2023-05-21T09:31:03.590Z,32.34
2023-05-21T09:35:22.948Z,34.84
2023-05-21T09:39:40.345Z,33.17
2023-05-21T09:44:01.248Z,34.42
2023-05-21T09:48:17.440Z,34.09
2023-05-21T09:52:36.268Z,33.92
2023-05-21T09:56:53.820Z,32.85
2023-05-21T10:01:15.777Z,31.97
2023-05-21T10:05:32.796Z,31.61
2023-05-21T10:09:51.184Z,36.20
2023-05-21T10:14:16.640Z,31.55
2023-05-21T10:18:33.756Z,32.75
2023-05-21T10:22:50.759Z,33.88
2023-05-21T10:27:07.700Z,31.29
2023-05-21T10:31:25.040Z,32.07
2023-05-21T10:35:41.483Z,31.65
2023-05-21T10:39:57.853Z,31.88
2023-05-21T10:44:58.416Z,33.92
2023-05-21T10:49:51.697Z,31.33
2023-05-21T10:54:31.912Z,32.91
2023-05-21T10:59:26.028Z,30.89
2023-05-21T11:03:42.461Z,32.34
2023-05-21T11:07:59.286Z,32.20
2023-05-21T11:12:15.587Z,32.03
2023-05-21T11:16:31.857Z,31.44
2023-05-21T11:20:51.958Z,31.76
2023-05-21T11:25:08.505Z,30.23
2023-05-21T11:29:40.459Z,32.12
2023-05-21T11:34:28.478Z,30.96
2023-05-21T11:39:04.970Z,30.33
2023-05-21T11:43:21.814Z,30.11
2023-05-21T11:47:38.068Z,30.04
2023-05-21T11:51:54.205Z,29.73
2023-05-21T11:56:12.330Z,30.57
2023-05-21T12:00:28.623Z,29.67
2023-05-21T12:04:46.608Z,28.68
2023-05-21T12:09:04.638Z,31.00
2023-05-21T12:13:22.654Z,28.96
2023-05-21T12:17:39.447Z,30.10
2023-05-21T12:21:56.304Z,30.50
2023-05-21T12:26:12.643Z,28.09
2023-05-21T12:30:29.167Z,27.43
2023-05-21T12:34:47.442Z,29.73
2023-05-21T12:39:03.780Z,27.39
2023-05-21T12:43:20.356Z,29.61
2023-05-21T12:47:37.156Z,26.99
2023-05-21T12:51:56.577Z,26.98
2023-05-21T12:56:13.749Z,27.36
2023-05-21T13:00:30.034Z,27.87
2023-05-21T13:04:46.766Z,25.81
2023-05-21T13:09:03.031Z,26.20
2023-05-21T13:13:19.438Z,26.21
2023-05-21T13:17:36.119Z,25.48
2023-05-21T13:21:52.323Z,24.53
2023-05-21T13:26:09.982Z,26.96
2023-05-21T13:30:26.326Z,24.38
2023-05-21T13:34:42.468Z,24.49
2023-05-21T13:38:58.820Z,23.25
2023-05-21T13:43:15.031Z,22.43
2023-05-21T13:47:32.513Z,24.65
2023-05-21T13:51:48.821Z,22.97
2023-05-21T13:56:05.852Z,21.86
2023-05-21T14:00:22.293Z,21.76
2023-05-21T14:04:39.546Z,21.97
2023-05-21T14:08:56.026Z,22.53
2023-05-21T14:13:19.553Z,21.84
2023-05-21T14:17:36.567Z,22.98
2023-05-21T14:21:53.010Z,19.37
2023-05-21T14:26:09.229Z,20.68
2023-05-21T14:30:25.534Z,19.45
2023-05-21T14:34:41.753Z,20.48
2023-05-21T14:38:57.965Z,19.05
2023-05-21T14:43:14.282Z,19.31
2023-05-21T14:47:30.657Z,18.41
2023-05-21T14:51:47.785Z,18.52
2023-05-21T14:56:04.183Z,20.96
2023-05-21T15:00:20.586Z,19.95
2023-05-21T15:04:36.713Z,20.81
2023-05-21T15:08:53.627Z,20.51
2023-05-21T15:13:10.039Z,21.55
2023-05-21T15:17:26.332Z,20.16
2023-05-21T15:21:42.529Z,21.89
2023-05-21T15:25:58.813Z,21.56
2023-05-21T15:30:15.083Z,20.22
2023-05-21T15:34:32.026Z,21.55
2023-05-21T15:38:48.315Z,21.51
2023-05-21T15:43:04.629Z,20.64
2023-05-21T15:47:20.968Z,21.16
2023-05-21T15:51:37.357Z,19.60
2023-05-21T15:55:53.665Z,20.07
2023-05-21T16:00:11.139Z,21.50
2023-05-21T16:04:27.393Z,22.15
2023-05-21T16:08:43.704Z,21.55
2023-05-21T16:13:00.302Z,22.37
2023-05-21T16:17:17.005Z,20.97
2023-05-21T16:21:33.983Z,21.86
2023-05-21T16:25:50.578Z,22.27
2023-05-21T16:30:07.795Z,21.82
2023-05-21T16:34:24.148Z,22.35
2023-05-21T16:38:40.478Z,22.68
2023-05-21T16:42:56.673Z,22.85
2023-05-21T16:47:12.798Z,23.55
2023-05-21T16:51:29.082Z,23.92
2023-05-21T16:55:45.336Z,24.27
2023-05-21T17:00:04.375Z,24.30
2023-05-21T17:04:20.636Z,24.61
2023-05-21T17:08:37.010Z,24.91
2023-05-21T17:12:53.738Z,24.71
2023-05-21T17:17:09.987Z,26.17
2023-05-21T17:21:26.930Z,26.57
2023-05-21T17:25:43.289Z,27.34
2023-05-21T17:29:59.702Z,27.64
2023-05-21T17:34:16.852Z,28.59
2023-05-21T17:38:33.456Z,29.17
2023-05-21T17:42:49.643Z,29.63
2023-05-21T17:47:06.967Z,30.66
2023-05-21T17:51:23.324Z,31.92
2023-05-21T17:55:40.104Z,32.76
2023-05-21T17:59:56.448Z,33.13
2023-05-21T18:04:13.404Z,34.14
2023-05-21T18:08:29.708Z,35.34
2023-05-21T18:12:46.619Z,36.70
2023-05-21T18:17:02.911Z,36.86
2023-05-21T18:21:19.336Z,37.16
2023-05-21T18:25:36.066Z,37.16
2023-05-21T18:29:52.559Z,37.95
2023-05-21T18:34:08.831Z,38.67
2023-05-21T18:38:25.183Z,39.54
2023-05-21T18:42:41.790Z,40.45
2023-05-21T18:46:58.697Z,40.37
2023-05-21T18:51:14.999Z,40.95
2023-05-21T18:55:31.205Z,40.75
2023-05-21T18:59:47.409Z,40.25
2023-05-21T19:04:03.695Z,40.86
2023-05-21T19:08:19.870Z,42.49
2023-05-21T19:12:36.540Z,43.71
2023-05-21T19:16:53.193Z,44.06
2023-05-21T19:21:09.583Z,43.76
2023-05-21T19:25:25.877Z,44.10
2023-05-21T19:29:42.320Z,44.23
2023-05-21T19:33:58.607Z,44.91
2023-05-21T19:38:16.126Z,44.81
2023-05-21T19:42:32.285Z,45.51
2023-05-21T19:46:50.131Z,46.00
2023-05-21T19:51:06.475Z,46.55
2023-05-21T19:55:23.013Z,46.09
2023-05-21T19:59:39.199Z,47.66
2023-05-21T20:03:55.786Z,46.42
2023-05-21T20:08:13.490Z,47.30
2023-05-21T20:12:29.896Z,47.19
2023-05-21T20:16:47.398Z,48.02
2023-05-21T20:21:06.562Z,48.09
2023-05-21T20:25:22.962Z,48.44
2023-05-21T20:29:39.292Z,48.06
2023-05-21T20:33:55.588Z,48.06
2023-05-21T20:38:12.744Z,48.36
2023-05-21T20:42:34.327Z,49.77
2023-05-21T20:46:50.766Z,48.78
2023-05-21T20:51:07.104Z,49.32
2023-05-21T20:55:23.301Z,50.47
2023-05-21T20:59:39.477Z,51.03
2023-05-21T21:03:55.831Z,49.83
2023-05-21T21:08:12.426Z,49.53
2023-05-21T21:12:28.824Z,50.24
2023-05-21T21:16:45.268Z,49.12
2023-05-21T21:21:01.636Z,49.57
2023-05-21T21:25:17.971Z,50.93
2023-05-21T21:29:34.254Z,50.59
2023-05-21T21:33:50.611Z,51.85
2023-05-21T21:38:06.895Z,51.98
2023-05-21T21:42:23.187Z,51.34
2023-05-21T21:46:39.724Z,50.83
2023-05-21T21:50:55.994Z,50.67
2023-05-21T21:55:12.668Z,50.05
2023-05-21T21:59:29.476Z,49.55
2023-05-21T22:03:45.964Z,49.58
2023-05-21T22:08:03.756Z,50.32
2023-05-21T22:12:19.980Z,50.38
2023-05-21T22:16:36.735Z,51.95
2023-05-21T22:20:53.021Z,51.44
2023-05-21T22:25:09.584Z,51.92
2023-05-21T22:29:25.885Z,52.48
2023-05-21T22:33:42.299Z,52.37
2023-05-21T22:37:58.962Z,52.23
2023-05-21T22:42:15.236Z,50.89
2023-05-21T22:46:32.233Z,51.10
2023-05-21T22:50:50.330Z,51.11
2023-05-21T22:55:06.976Z,51.66
2023-05-21T22:59:23.232Z,51.54
2023-05-21T23:03:39.468Z,51.92
2023-05-21T23:07:55.902Z,51.08
2023-05-21T23:12:12.376Z,50.73
2023-05-21T23:16:30.989Z,51.20
2023-05-21T23:20:47.300Z,51.14
2023-05-21T23:25:04.109Z,51.30
2023-05-21T23:29:20.306Z,50.72
2023-05-21T23:33:36.625Z,50.81
2023-05-21T23:37:52.805Z,50.85
2023-05-21T23:42:09.146Z,50.92
2023-05-21T23:46:25.297Z,50.93
2023-05-21T23:50:41.717Z,51.66
2023-05-21T23:54:58.191Z,50.76
2023-05-21T23:59:16.873Z,51.29
